Time;durP1;ratioP1;P1;durP2;ratioP2;P2;SDS_P1;SDS_P2;PMS_P1;PMS_P2;Temp;Humidity;BMP_temperature;BMP_pressure;BME280_temperature;BME280_humidity;BME280_pressure;Samples;Min_cycle;Max_cycle;Signal;HPM_P1;HPM_P2
2022/04/30 00:02:19;;;;;;;;;;;;;;;10.84;66.11;101480.53;5024797;28;1587;-91
2022/04/30 00:04:47;;;;;;;;;;;;;;;10.86;65.78;101478.38;5046337;28;1219;-91
2022/04/30 00:07:14;;;;;;;;;;;;;;;10.71;65.11;101473.56;5016267;28;1384;-91
2022/04/30 00:09:39;;;;;;;;;;;;;;;10.38;67.18;101474.53;5032581;28;1453;-91
2022/04/30 00:12:05;;;;;;;;;;;;;;;10.48;67.18;101480.13;5032422;28;1774;-91
2022/04/30 00:14:30;;;;;;;;;;;;;;;10.42;67.09;101474.84;5057307;28;1959;-91
2022/04/30 00:16:56;;;;;;;;;;;;;;;10.45;68.45;101471.63;5032409;28;1401;-91
2022/04/30 00:19:22;;;;;;;;;;;;;;;10.77;68.61;101475.25;5038269;28;1498;-91
2022/04/30 00:21:48;;;;;;;;;;;;;;;10.72;68.39;101474.38;5018764;28;1234;-91
2022/04/30 00:24:23;;;;;;;;;;;;;;;10.75;68.78;101479.34;5032490;28;1623;-91
2022/04/30 00:26:48;;;;;;;;;;;;;;;10.63;67.01;101484.16;5033031;28;1112;-91
2022/04/30 00:29:14;;;;;;;;;;;;;;;10.69;66.33;101475.72;5041440;28;1715;-91
2022/04/30 00:31:40;;;;;;;;;;;;;;;10.62;68.59;101477.84;5036747;28;1242;-92
2022/04/30 00:34:05;;;;;;;;;;;;;;;10.48;65.75;101469.19;5024507;28;1948;-92
2022/04/30 00:36:30;;;;;;;;;;;;;;;10.65;67.76;101469.09;5033185;28;1286;-92
2022/04/30 00:38:56;;;;;;;;;;;;;;;10.55;69.21;101468.97;5033207;28;1214;-92
2022/04/30 00:41:23;;;;;;;;;;;;;;;10.53;69.85;101469.25;5034979;28;1354;-92
2022/04/30 00:43:49;;;;;;;;;;;;;;;10.47;69.91;101470.25;5053042;28;1238;-93
2022/04/30 00:46:18;;;;;;;;;;;;;;;10.45;69.33;101471.63;5032615;28;1582;-91
2022/04/30 00:48:44;;;;;;;;;;;;;;;10.48;71.09;101471.09;5032150;28;1823;-91
2022/04/30 00:51:11;;;;;;;;;;;;;;;10.48;70.38;101471.91;5034908;28;1349;-92
2022/04/30 00:53:37;;;;;;;;;;;;;;;10.51;69.52;101471.41;5032544;28;1897;-91
2022/04/30 00:56:12;;;;;;;;;;;;;;;10.34;69.38;101473.41;5027049;28;1392;-91
2022/04/30 00:58:45;;;;;;;;;;;;;;;10.43;69.35;101477.34;5036636;28;1662;-91
2022/04/30 01:01:14;;;;;;;;;;;;;;;10.31;68.17;101465.69;5044132;28;1485;-91
2022/04/30 01:03:51;;;;;;;;;;;;;;;10.14;69.64;101471.19;5036055;28;1761;-91
2022/04/30 01:06:18;;;;;;;;;;;;;;;10.35;68.97;101468.75;5036207;28;1738;-90
2022/04/30 01:09:06;;;;;;;;;;;;;;;10.15;69.23;101472.03;5040915;28;1746;-91
2022/04/30 01:11:31;;;;;;;;;;;;;;;9.86;70.94;101469.47;5039290;28;1481;-91
2022/04/30 01:13:58;;;;;;;;;;;;;;;9.96;70.17;101463.28;5039110;28;1890;-90
2022/04/30 01:16:25;;;;;;;;;;;;;;;10.07;68.75;101458.78;5035616;28;1819;-91
2022/04/30 01:18:50;;;;;;;;;;;;;;;9.92;69.92;101458.59;5041396;28;1286;-91
2022/04/30 01:21:19;;;;;;;;;;;;;;;10.16;71.17;101457.25;5047439;28;1218;-91
2022/04/30 01:23:44;;;;;;;;;;;;;;;10.15;70.26;101450.97;5047060;28;1338;-90
2022/04/30 01:26:10;;;;;;;;;;;;;;;10.09;69.82;101453.91;5033667;28;1814;-90
2022/04/30 01:28:36;;;;;;;;;;;;;;;10.15;70.40;101448.22;5036443;28;1714;-91
2022/04/30 01:31:01;;;;;;;;;;;;;;;10.14;70.31;101449.31;5043579;28;1227;-90
2022/04/30 01:38:58;;;;;;;;;;;;;;;9.95;69.79;101441.69;5035199;28;1742;-90
2022/04/30 01:41:24;;;;;;;;;;;;;;;9.99;70.54;101438.19;5050172;28;1415;-91
2022/04/30 01:43:49;;;;;;;;;;;;;;;9.93;71.59;101439.19;5039271;28;1751;-91
2022/04/30 01:46:14;;;;;;;;;;;;;;;9.70;69.46;101434.75;5037649;28;1251;-91
2022/04/30 01:48:40;;;;;;;;;;;;;;;9.79;70.94;101441.47;5043369;28;1814;-91
2022/04/30 01:51:05;;;;;;;;;;;;;;;9.84;69.95;101432.50;5032125;28;1260;-91
2022/04/30 01:53:30;;;;;;;;;;;;;;;9.77;70.03;101440.06;5033937;28;1977;-91
2022/04/30 01:55:56;;;;;;;;;;;;;;;9.79;69.90;101437.91;5048226;28;1383;-91
2022/04/30 01:58:21;;;;;;;;;;;;;;;9.81;69.68;101431.09;5055503;28;1199;-91
2022/04/30 02:00:46;;;;;;;;;;;;;;;9.94;69.61;101442.75;5055203;28;1192;-90
2022/04/30 02:03:12;;;;;;;;;;;;;;;9.79;70.37;101432.41;5037541;28;1757;-90
2022/04/30 02:05:39;;;;;;;;;;;;;;;9.66;70.18;101439.09;5044317;28;1468;-90
2022/04/30 02:08:09;;;;;;;;;;;;;;;9.82;70.11;101437.41;5038052;28;1572;-91
2022/04/30 02:10:41;;;;;;;;;;;;;;;9.83;69.48;101433.59;5034680;28;1505;-91
2022/04/30 02:13:07;;;;;;;;;;;;;;;9.84;71.40;101427.88;5033171;28;1494;-90
2022/04/30 02:15:32;;;;;;;;;;;;;;;9.59;71.76;101432.16;5038948;28;1882;-90
2022/04/30 02:17:58;;;;;;;;;;;;;;;9.46;71.93;101428.69;5033968;28;1500;-91
2022/04/30 02:20:29;;;;;;;;;;;;;;;9.30;73.32;101429.53;5034444;28;1512;-91
2022/04/30 02:22:58;;;;;;;;;;;;;;;9.44;71.85;101427.28;5037549;28;1395;-91
2022/04/30 02:25:24;;;;;;;;;;;;;;;9.21;71.91;101424.72;5046208;28;1394;-91
2022/04/30 02:27:51;;;;;;;;;;;;;;;9.33;72.50;101420.84;5047173;28;1365;-90
2022/04/30 02:30:17;;;;;;;;;;;;;;;9.31;71.72;101413.97;5034056;28;1646;-90
2022/04/30 02:33:06;;;;;;;;;;;;;;;9.52;70.76;101412.38;5031938;28;1463;-89
2022/04/30 02:35:34;;;;;;;;;;;;;;;9.64;71.22;101399.41;5021214;28;1970;-91
2022/04/30 02:38:00;;;;;;;;;;;;;;;9.59;71.43;101404.81;5030890;28;1492;-91
2022/04/30 02:40:26;;;;;;;;;;;;;;;9.35;72.24;101394.09;5018392;28;1604;-90
2022/04/30 02:42:52;;;;;;;;;;;;;;;9.41;71.64;101395.81;5045499;28;1342;-93
2022/04/30 02:45:18;;;;;;;;;;;;;;;9.36;73.07;101395.72;5054702;28;1234;-92
2022/04/30 02:47:45;;;;;;;;;;;;;;;9.11;73.09;101395.34;5042827;28;1828;-92
2022/04/30 02:50:11;;;;;;;;;;;;;;;8.99;73.58;101397.34;5046015;28;1236;-93
2022/04/30 02:52:37;;;;;;;;;;;;;;;9.14;73.20;101397.59;5041570;28;1849;-92
2022/04/30 02:55:03;;;;;;;;;;;;;;;8.92;73.50;101388.50;5041139;28;1970;-92
2022/04/30 03:00:39;;;;;;;;;;;;;;;8.98;73.08;101392.97;5037100;28;1376;-92
2022/04/30 03:03:04;;;;;;;;;;;;;;;9.09;72.24;101387.44;5042585;28;1746;-92
2022/04/30 03:05:30;;;;;;;;;;;;;;;9.24;72.61;101389.56;5039209;28;1523;-93
2022/04/30 03:07:57;;;;;;;;;;;;;;;9.22;72.87;101380.78;5050669;28;1360;-91
2022/04/30 03:10:22;;;;;;;;;;;;;;;9.18;73.29;101379.63;5077159;22;1826;-90
2022/04/30 03:12:49;;;;;;;;;;;;;;;8.97;73.29;101380.38;5045934;28;1489;-90
2022/04/30 03:15:14;;;;;;;;;;;;;;;8.87;74.25;101374.75;5034509;28;1914;-90
2022/04/30 03:23:08;;;;;;;;;;;;;;;8.78;73.90;101378.97;5021240;28;636;-90
2022/04/30 03:25:33;;;;;;;;;;;;;;;8.84;73.88;101378.00;5023079;28;1782;-90
2022/04/30 03:27:58;;;;;;;;;;;;;;;9.04;74.43;101375.56;5033021;28;1752;-90
2022/04/30 03:30:23;;;;;;;;;;;;;;;9.17;74.31;101377.16;5033000;28;1774;-90
2022/04/30 03:32:49;;;;;;;;;;;;;;;9.18;75.38;101368.72;5032874;28;1607;-91
2022/04/30 03:35:14;;;;;;;;;;;;;;;9.28;74.05;101374.31;5044494;28;1898;-91
2022/04/30 03:37:40;;;;;;;;;;;;;;;9.03;73.39;101376.66;5033382;28;1165;-90
2022/04/30 03:40:05;;;;;;;;;;;;;;;8.87;74.36;101383.75;5032918;28;1346;-91
2022/04/30 03:42:30;;;;;;;;;;;;;;;8.83;74.50;101377.16;5034381;28;1023;-91
2022/04/30 03:44:56;;;;;;;;;;;;;;;9.00;74.03;101379.88;5032861;28;1910;-90
2022/04/30 03:47:21;;;;;;;;;;;;;;;9.09;74.24;101368.31;5033493;28;1218;-91
2022/04/30 03:49:46;;;;;;;;;;;;;;;9.21;74.70;101370.09;5033753;28;1272;-90
2022/04/30 03:52:12;;;;;;;;;;;;;;;9.21;73.97;101372.81;5033710;28;1060;-90
2022/04/30 03:54:37;;;;;;;;;;;;;;;9.14;74.85;101373.00;5033005;28;1960;-91
2022/04/30 03:57:02;;;;;;;;;;;;;;;9.11;74.37;101368.03;5032885;28;1255;-91
2022/04/30 03:59:27;;;;;;;;;;;;;;;9.13;74.58;101367.78;5040952;28;1366;-91
2022/04/30 04:01:53;;;;;;;;;;;;;;;9.05;74.41;101366.31;5047432;28;1194;-90
2022/04/30 04:04:18;;;;;;;;;;;;;;;8.91;75.23;101367.72;5033143;28;1504;-91
2022/04/30 04:06:43;;;;;;;;;;;;;;;8.84;75.33;101375.25;5032709;28;1826;-90
2022/04/30 04:09:09;;;;;;;;;;;;;;;8.82;76.12;101382.88;5032683;28;1185;-91
2022/04/30 04:11:34;;;;;;;;;;;;;;;8.90;75.21;101383.28;5036568;28;1779;-90
2022/04/30 04:19:30;;;;;;;;;;;;;;;9.02;74.56;101383.19;5013952;28;1245;-91
2022/04/30 04:21:56;;;;;;;;;;;;;;;8.96;74.79;101376.81;5019025;28;1786;-91
2022/04/30 04:27:05;;;;;;;;;;;;;;;8.80;75.17;101380.38;5037799;28;1714;-90
2022/04/30 04:29:30;;;;;;;;;;;;;;;8.88;76.13;101377.22;5049609;28;1836;-90
2022/04/30 04:31:55;;;;;;;;;;;;;;;8.97;75.39;101373.00;5020459;28;1709;-90
2022/04/30 04:34:20;;;;;;;;;;;;;;;8.79;74.57;101377.88;5023187;28;1949;-90
2022/04/30 04:36:46;;;;;;;;;;;;;;;8.85;76.19;101379.63;5052884;28;1491;-90
2022/04/30 04:39:12;;;;;;;;;;;;;;;8.67;75.86;101370.63;5037400;28;1800;-90
2022/04/30 04:41:38;;;;;;;;;;;;;;;8.81;75.46;101370.28;5037897;28;781;-90
2022/04/30 04:44:03;;;;;;;;;;;;;;;8.78;75.67;101374.31;5035594;28;1847;-90
2022/04/30 04:46:29;;;;;;;;;;;;;;;8.82;75.24;101374.66;5043308;28;1205;-90
2022/04/30 04:48:54;;;;;;;;;;;;;;;8.63;75.26;101368.63;5035902;28;1692;-90
2022/04/30 04:51:21;;;;;;;;;;;;;;;8.38;75.92;101369.00;5036088;28;1271;-90
2022/04/30 04:53:46;;;;;;;;;;;;;;;8.29;76.38;101375.88;5025221;28;1899;-91
2022/04/30 04:56:11;;;;;;;;;;;;;;;8.11;76.61;101374.16;5044821;28;1106;-90
2022/04/30 04:58:36;;;;;;;;;;;;;;;8.09;76.99;101370.00;5055816;28;1169;-90
2022/04/30 05:01:01;;;;;;;;;;;;;;;8.32;77.39;101379.00;5018268;28;1706;-90
2022/04/30 05:03:26;;;;;;;;;;;;;;;8.55;75.88;101369.84;5017314;28;815;-90
2022/04/30 05:05:52;;;;;;;;;;;;;;;8.70;75.71;101370.09;5016319;28;1087;-90
2022/04/30 05:08:17;;;;;;;;;;;;;;;8.49;75.44;101379.03;5030996;28;1838;-90
2022/04/30 05:10:42;;;;;;;;;;;;;;;8.22;76.28;101381.47;5048263;28;1604;-91
2022/04/30 05:13:07;;;;;;;;;;;;;;;8.30;75.53;101383.81;5035881;28;1361;-90
2022/04/30 05:15:32;;;;;;;;;;;;;;;8.22;76.38;101381.47;5037011;28;1959;-91
2022/04/30 05:17:58;;;;;;;;;;;;;;;8.50;76.53;101383.41;5035689;28;1636;-91
2022/04/30 05:20:23;;;;;;;;;;;;;;;8.61;75.86;101382.50;5037090;28;1263;-91
2022/04/30 05:22:48;;;;;;;;;;;;;;;8.68;75.56;101390.53;5035197;28;1356;-91
2022/04/30 05:25:13;;;;;;;;;;;;;;;8.62;76.10;101389.63;5044866;28;1145;-90
2022/04/30 05:27:38;;;;;;;;;;;;;;;8.72;74.89;101397.16;5036434;28;1491;-90
2022/04/30 05:30:04;;;;;;;;;;;;;;;8.64;74.81;101392.94;5033608;28;1424;-90
2022/04/30 05:32:29;;;;;;;;;;;;;;;8.63;75.43;101394.00;5035129;28;1776;-90
2022/04/30 05:34:54;;;;;;;;;;;;;;;8.68;75.22;101394.09;5049840;28;1889;-90
2022/04/30 05:37:19;;;;;;;;;;;;;;;8.71;75.23;101392.78;5036345;28;1040;-90
2022/04/30 05:39:44;;;;;;;;;;;;;;;8.68;74.13;101394.09;5035081;28;1843;-90
2022/04/30 05:42:09;;;;;;;;;;;;;;;8.73;74.55;101390.63;5041229;28;1375;-91
2022/04/30 05:44:35;;;;;;;;;;;;;;;8.79;75.30;101388.81;5041082;28;1074;-89
2022/04/30 05:47:00;;;;;;;;;;;;;;;8.68;75.74;101391.34;5051437;28;1841;-90
2022/04/30 05:49:26;;;;;;;;;;;;;;;8.62;75.57;101389.63;5034570;28;1337;-90
2022/04/30 05:51:51;;;;;;;;;;;;;;;8.70;75.46;101381.03;5031763;28;1252;-90
2022/04/30 05:54:16;;;;;;;;;;;;;;;8.82;76.56;101386.41;5031490;28;1902;-89
2022/04/30 05:56:41;;;;;;;;;;;;;;;8.50;75.14;101382.59;5034697;28;1748;-90
2022/04/30 05:59:07;;;;;;;;;;;;;;;8.64;75.54;101392.09;5034627;28;1378;-89
2022/04/30 06:01:32;;;;;;;;;;;;;;;8.70;75.96;101400.13;5035187;28;1252;-90
2022/04/30 06:03:57;;;;;;;;;;;;;;;8.60;75.03;101405.41;5034835;28;1340;-89
2022/04/30 06:06:23;;;;;;;;;;;;;;;8.65;76.52;101412.88;5053493;28;1203;-90
2022/04/30 06:08:48;;;;;;;;;;;;;;;8.78;76.74;101415.28;5054322;28;1295;-89
2022/04/30 06:11:13;;;;;;;;;;;;;;;8.78;75.95;101414.44;5046280;28;1234;-90
2022/04/30 06:13:38;;;;;;;;;;;;;;;8.61;75.28;101420.69;5037639;28;1910;-90
2022/04/30 06:16:04;;;;;;;;;;;;;;;8.65;74.59;101415.59;5034543;28;1279;-90
2022/04/30 06:18:29;;;;;;;;;;;;;;;8.82;75.38;101416.44;5034410;28;1363;-89
2022/04/30 06:21:10;;;;;;;;;;;;;;;8.97;75.57;101415.88;5023041;28;1271;-89
2022/04/30 06:23:35;;;;;;;;;;;;;;;8.85;75.99;101417.84;5028355;28;1326;-89
2022/04/30 06:26:00;;;;;;;;;;;;;;;8.79;75.78;101411.47;5014857;28;894;-89
2022/04/30 06:28:25;;;;;;;;;;;;;;;8.86;75.90;101422.22;5027368;28;1278;-89
2022/04/30 06:30:51;;;;;;;;;;;;;;;8.80;75.14;101417.75;5029527;28;1612;-89
2022/04/30 06:33:19;;;;;;;;;;;;;;;8.72;75.10;101413.53;5036009;28;1253;-91
2022/04/30 06:35:44;;;;;;;;;;;;;;;8.70;76.16;101419.22;5040297;28;1251;-90
2022/04/30 06:38:12;;;;;;;;;;;;;;;8.85;76.17;101415.09;5046663;28;1243;-90
2022/04/30 06:40:37;;;;;;;;;;;;;;;8.91;73.97;101420.44;5031393;28;1368;-90
2022/04/30 06:43:02;;;;;;;;;;;;;;;8.92;75.54;101415.81;5032365;28;1091;-91
2022/04/30 06:45:35;;;;;;;;;;;;;;;8.99;75.16;101427.38;5037341;28;1410;-91
2022/04/30 06:48:00;;;;;;;;;;;;;;;8.98;75.14;101414.81;5035292;28;1153;-90
2022/04/30 06:50:26;;;;;;;;;;;;;;;8.87;76.32;101419.25;5045001;28;1426;-90
2022/04/30 06:58:19;;;;;;;;;;;;;;;8.59;74.78;101422.84;5036959;28;1605;-90
2022/04/30 07:03:26;;;;;;;;;;;;;;;8.87;75.21;101413.78;5043637;28;1248;-90
2022/04/30 07:05:52;;;;;;;;;;;;;;;8.83;75.01;101418.09;5036495;28;1542;-90
2022/04/30 07:08:17;;;;;;;;;;;;;;;8.63;75.09;101424.03;5034778;28;1284;-90
2022/04/30 07:10:42;;;;;;;;;;;;;;;8.70;74.36;101419.22;5034204;28;1224;-91
2022/04/30 07:13:12;;;;;;;;;;;;;;;8.91;76.25;101422.34;5026080;28;1317;-91
2022/04/30 07:15:37;;;;;;;;;;;;;;;8.99;75.47;101424.66;5024607;28;1967;-90
2022/04/30 07:18:02;;;;;;;;;;;;;;;8.73;72.98;101424.22;5029903;28;1832;-90
2022/04/30 07:20:27;;;;;;;;;;;;;;;8.85;74.31;101421.41;5044500;28;1284;-89
2022/04/30 07:22:57;;;;;;;;;;;;;;;8.89;73.60;101421.75;5038577;28;1335;-90
2022/04/30 07:25:22;;;;;;;;;;;;;;;8.97;73.85;101424.91;5033273;28;1153;-90
2022/04/30 07:27:49;;;;;;;;;;;;;;;9.00;72.40;101426.31;5026901;28;1269;-89
2022/04/30 07:30:14;;;;;;;;;;;;;;;9.13;73.09;101419.69;5036899;28;1366;-90
2022/04/30 07:32:40;;;;;;;;;;;;;;;9.21;72.51;101422.00;5036776;28;1411;-90
2022/04/30 07:35:05;;;;;;;;;;;;;;;9.09;74.14;101422.09;5036225;28;1886;-90
2022/04/30 07:37:30;;;;;;;;;;;;;;;9.29;73.67;101425.13;5032769;28;1377;-90
2022/04/30 07:39:56;;;;;;;;;;;;;;;9.28;71.95;101428.13;5029628;28;1166;-90
2022/04/30 07:42:21;;;;;;;;;;;;;;;9.22;70.46;101429.13;5032652;28;1153;-89
2022/04/30 07:44:46;;;;;;;;;;;;;;;8.92;71.72;101426.72;5032884;28;871;-89
2022/04/30 07:47:11;;;;;;;;;;;;;;;9.13;71.61;101434.16;5029160;28;1502;-89
2022/04/30 07:49:36;;;;;;;;;;;;;;;9.35;72.07;101426.91;5037936;28;1275;-90
2022/04/30 07:52:01;;;;;;;;;;;;;;;9.54;71.14;101429.34;5037966;28;1383;-90
2022/04/30 07:54:27;;;;;;;;;;;;;;;9.57;70.89;101426.94;5033985;28;1886;-90
2022/04/30 07:56:56;;;;;;;;;;;;;;;9.67;69.64;101434.47;5031851;28;1375;-89
2022/04/30 07:59:21;;;;;;;;;;;;;;;9.67;71.70;101434.47;5045875;28;1505;-90
2022/04/30 08:01:47;;;;;;;;;;;;;;;9.37;69.63;101434.81;5034767;28;1235;-90
2022/04/30 08:04:12;;;;;;;;;;;;;;;9.49;69.01;101430.09;5031318;28;1802;-89
2022/04/30 08:06:37;;;;;;;;;;;;;;;9.62;69.78;101435.19;5032585;28;1614;-90
2022/04/30 08:09:03;;;;;;;;;;;;;;;9.70;70.45;101439.41;5028962;28;1298;-89
2022/04/30 08:11:28;;;;;;;;;;;;;;;9.69;70.66;101438.59;5032453;28;1414;-90
2022/04/30 08:13:53;;;;;;;;;;;;;;;9.59;70.21;101435.72;5038696;28;1874;-89
2022/04/30 08:16:18;;;;;;;;;;;;;;;9.80;70.80;101437.66;5036032;28;1555;-90
2022/04/30 08:18:46;;;;;;;;;;;;;;;9.97;70.50;101432.13;5032829;28;1271;-91
2022/04/30 08:21:11;;;;;;;;;;;;;;;9.91;70.34;101438.63;5032847;28;1290;-90
2022/04/30 08:23:36;;;;;;;;;;;;;;;9.69;68.72;101427.66;5045469;28;1213;-89
2022/04/30 08:26:03;;;;;;;;;;;;;;;9.74;69.39;101435.09;5052596;28;1298;-90
2022/04/30 08:28:28;;;;;;;;;;;;;;;9.63;68.73;101430.56;5052524;28;1263;-90
2022/04/30 08:30:53;;;;;;;;;;;;;;;9.88;68.95;101434.47;5052550;28;1227;-91
2022/04/30 08:33:18;;;;;;;;;;;;;;;10.00;68.25;101425.34;5052604;28;1306;-90
2022/04/30 08:35:43;;;;;;;;;;;;;;;9.96;68.79;101422.25;5052732;28;1902;-91
2022/04/30 08:38:09;;;;;;;;;;;;;;;9.90;66.09;101425.19;5052673;28;897;-90
2022/04/30 08:40:35;;;;;;;;;;;;;;;9.73;68.37;101431.53;5044112;28;1264;-90
2022/04/30 08:43:10;;;;;;;;;;;;;;;9.87;70.03;101419.13;5046345;28;1280;-90
2022/04/30 08:45:42;;;;;;;;;;;;;;;10.18;69.22;101428.63;5032474;28;1183;-90
2022/04/30 08:48:09;;;;;;;;;;;;;;;9.87;66.43;101423.78;5032484;28;1207;-89
2022/04/30 08:50:35;;;;;;;;;;;;;;;9.82;67.42;101421.00;5032119;28;1733;-90
2022/04/30 08:53:00;;;;;;;;;;;;;;;10.12;66.05;101424.09;5032596;28;1384;-89
2022/04/30 08:55:25;;;;;;;;;;;;;;;10.35;67.73;101422.22;5032306;28;1898;-90
2022/04/30 08:57:51;;;;;;;;;;;;;;;9.94;67.45;101427.19;5033656;28;786;-91
2022/04/30 09:00:16;;;;;;;;;;;;;;;10.24;68.29;101424.84;5032668;28;1358;-90
2022/04/30 09:02:48;;;;;;;;;;;;;;;10.36;68.62;101421.97;5039064;28;1227;-90
2022/04/30 09:05:14;;;;;;;;;;;;;;;10.53;68.75;101427.38;5032257;28;1153;-90
2022/04/30 09:07:39;;;;;;;;;;;;;;;10.63;66.26;101418.44;5033300;28;1430;-90
2022/04/30 09:10:05;;;;;;;;;;;;;;;10.56;68.06;101426.84;5056420;22;1893;-89
2022/04/30 09:12:33;;;;;;;;;;;;;;;10.52;67.37;101425.72;5032255;28;1262;-91
2022/04/30 09:14:59;;;;;;;;;;;;;;;10.43;64.84;101422.59;5039688;28;2331;-91
2022/04/30 09:17:25;;;;;;;;;;;;;;;10.58;68.23;101414.53;5040032;28;1670;-90
2022/04/30 09:19:54;;;;;;;;;;;;;;;10.31;66.18;101415.59;5057198;28;1332;-91
2022/04/30 09:22:29;;;;;;;;;;;;;;;10.60;67.08;101417.84;5039794;28;1348;-90
2022/04/30 09:24:55;;;;;;;;;;;;;;;10.57;66.69;101412.88;5036179;28;1536;-91
2022/04/30 09:27:20;;;;;;;;;;;;;;;10.81;67.08;101410.66;5030396;28;1201;-92
2022/04/30 09:29:45;;;;;;;;;;;;;;;10.98;67.00;101408.63;5046422;28;1861;-90
2022/04/30 09:32:21;;;;;;;;;;;;;;;11.01;65.18;101401.81;5040802;28;1253;-91
2022/04/30 09:37:48;;;;;;;;;;;;;;;10.97;65.39;101400.69;5058589;28;639;-92
2022/04/30 09:40:13;;;;;;;;;;;;;;;11.10;67.53;101405.72;5039666;28;1873;-91
2022/04/30 09:42:39;;;;;;;;;;;;;;;10.70;63.64;101417.13;5039369;28;1236;-91
2022/04/30 09:45:05;;;;;;;;;;;;;;;10.45;66.35;101408.66;5039075;28;1170;-91
2022/04/30 09:47:31;;;;;;;;;;;;;;;10.63;64.12;101405.56;5038749;28;1237;-91
2022/04/30 09:55:24;;;;;;;;;;;;;;;11.07;64.98;101391.69;5056713;28;1967;-91
2022/04/30 09:57:50;;;;;;;;;;;;;;;11.32;66.03;101383.66;5039356;28;1201;-91
2022/04/30 10:00:16;;;;;;;;;;;;;;;11.38;64.22;101388.94;5039010;28;1479;-90
2022/04/30 10:02:42;;;;;;;;;;;;;;;11.28;64.99;101394.34;5038948;28;1366;-91
2022/04/30 10:05:08;;;;;;;;;;;;;;;11.10;65.58;101382.97;5037626;28;1351;-91
2022/04/30 10:07:34;;;;;;;;;;;;;;;10.59;65.47;101396.22;5034262;28;1354;-93
2022/04/30 10:10:13;;;;;;;;;;;;;;;10.51;66.16;101391.19;5035219;28;1603;-91
2022/04/30 10:12:46;;;;;;;;;;;;;;;10.60;67.42;101390.47;5048845;28;1432;-91
2022/04/30 10:15:20;;;;;;;;;;;;;;;10.77;67.21;101382.16;5029691;28;1923;-91
2022/04/30 10:17:49;;;;;;;;;;;;;;;10.69;67.51;101381.78;5038151;28;1643;-91
2022/04/30 10:20:22;;;;;;;;;;;;;;;10.57;67.56;101391.00;5038176;28;1438;-93
2022/04/30 10:22:51;;;;;;;;;;;;;;;10.67;68.13;101389.44;5037880;28;1330;-91
2022/04/30 10:25:17;;;;;;;;;;;;;;;10.72;66.75;101386.75;5029432;28;1408;-91
2022/04/30 10:27:47;;;;;;;;;;;;;;;10.59;68.62;101393.47;5033900;28;1242;-91
2022/04/30 10:30:20;;;;;;;;;;;;;;;10.47;67.79;101387.31;5037604;28;1295;-92
2022/04/30 10:32:54;;;;;;;;;;;;;;;10.34;68.15;101385.84;5031819;28;1395;-90
2022/04/30 10:35:27;;;;;;;;;;;;;;;10.37;68.17;101389.97;5037297;28;1953;-91
2022/04/30 10:37:52;;;;;;;;;;;;;;;10.53;69.03;101386.31;5036911;28;1443;-91
2022/04/30 10:40:18;;;;;;;;;;;;;;;10.16;67.11;101384.22;5037054;28;1236;-91
2022/04/30 10:42:44;;;;;;;;;;;;;;;10.13;68.21;101384.72;5037360;28;1406;-92
2022/04/30 10:45:16;;;;;;;;;;;;;;;10.36;68.98;101389.16;5037105;28;1431;-92
2022/04/30 10:47:51;;;;;;;;;;;;;;;10.23;68.67;101387.63;5037145;28;1520;-91
2022/04/30 10:50:17;;;;;;;;;;;;;;;10.12;68.70;101388.53;5036956;28;1572;-92
2022/04/30 10:52:46;;;;;;;;;;;;;;;10.30;68.71;101387.41;5027127;28;1620;-91
2022/04/30 10:55:11;;;;;;;;;;;;;;;10.41;68.88;101389.19;5035831;28;1890;-91
2022/04/30 10:57:40;;;;;;;;;;;;;;;10.34;69.65;101383.09;5037113;28;1299;-91
2022/04/30 11:00:05;;;;;;;;;;;;;;;10.31;69.55;101385.50;5034067;28;1272;-90
2022/04/30 11:02:32;;;;;;;;;;;;;;;10.01;68.70;101380.50;5037147;28;1495;-90
2022/04/30 11:04:57;;;;;;;;;;;;;;;10.13;69.35;101384.72;5036850;28;1495;-91
2022/04/30 11:07:22;;;;;;;;;;;;;;;10.19;69.65;101382.94;5037242;28;1169;-91
2022/04/30 11:09:47;;;;;;;;;;;;;;;10.50;69.27;101381.34;5036895;28;1806;-91
2022/04/30 11:12:14;;;;;;;;;;;;;;;10.47;68.16;101379.94;5040633;28;1807;-91
2022/04/30 11:14:40;;;;;;;;;;;;;;;10.41;67.64;101378.22;5037109;28;1906;-91
2022/04/30 11:17:05;;;;;;;;;;;;;;;10.26;67.92;101372.59;5036178;28;1411;-90
2022/04/30 11:19:30;;;;;;;;;;;;;;;10.35;68.07;101373.81;5045522;28;1594;-91
2022/04/30 11:21:55;;;;;;;;;;;;;;;10.26;67.92;101374.50;5037703;28;1587;-91
2022/04/30 11:24:24;;;;;;;;;;;;;;;10.31;68.43;101374.56;5037479;28;1773;-91
2022/04/30 11:26:52;;;;;;;;;;;;;;;10.46;68.41;101372.00;5055006;28;1664;-91
2022/04/30 11:29:17;;;;;;;;;;;;;;;10.65;68.28;101359.56;5053337;28;1401;-93
2022/04/30 11:31:43;;;;;;;;;;;;;;;10.63;67.79;101357.09;5023529;28;1619;-92
2022/04/30 11:34:09;;;;;;;;;;;;;;;10.62;67.51;101360.13;5019567;28;1951;-92
2022/04/30 11:36:38;;;;;;;;;;;;;;;10.57;67.83;101368.25;5035786;28;1274;-91
2022/04/30 11:39:04;;;;;;;;;;;;;;;10.48;67.79;101364.34;5036843;28;1385;-92
2022/04/30 11:41:29;;;;;;;;;;;;;;;10.35;67.52;101359.28;5033907;28;1376;-92
2022/04/30 11:43:59;;;;;;;;;;;;;;;10.39;66.57;101360.41;5017427;28;1044;-92
2022/04/30 11:46:24;;;;;;;;;;;;;;;10.38;67.17;101364.25;5017475;28;1315;-92
2022/04/30 11:48:49;;;;;;;;;;;;;;;10.30;67.73;101362.78;5033769;28;1298;-91
2022/04/30 11:51:15;;;;;;;;;;;;;;;10.36;67.71;101363.69;5017242;28;953;-92
2022/04/30 11:53:41;;;;;;;;;;;;;;;10.46;68.00;101352.84;5025693;28;1917;-92
2022/04/30 11:56:06;;;;;;;;;;;;;;;10.33;66.91;101356.81;5037136;28;1502;-91
2022/04/30 11:58:41;;;;;;;;;;;;;;;10.38;68.09;101347.84;5036908;28;1230;-93
2022/04/30 12:01:17;;;;;;;;;;;;;;;10.54;68.05;101355.13;5036127;28;1339;-93
2022/04/30 12:03:42;;;;;;;;;;;;;;;10.46;68.11;101355.59;5036354;28;1244;-93
2022/04/30 12:06:07;;;;;;;;;;;;;;;10.22;67.86;101353.13;5036505;28;893;-93
2022/04/30 12:08:33;;;;;;;;;;;;;;;10.20;67.50;101352.59;5036199;28;1315;-93
2022/04/30 12:10:58;;;;;;;;;;;;;;;10.26;68.48;101349.88;5034623;28;1315;-93
2022/04/30 12:13:24;;;;;;;;;;;;;;;10.52;67.79;101346.31;5036095;28;1177;-93
2022/04/30 12:15:49;;;;;;;;;;;;;;;10.59;67.12;101345.03;5036131;28;1894;-93
2022/04/30 12:26:36;;;;;;;;;;;;;;;10.50;68.35;101334.81;5054141;28;1407;-91
2022/04/30 12:29:04;;;;;;;;;;;;;;;10.86;68.64;101336.78;5036131;28;1294;-89
2022/04/30 12:31:31;;;;;;;;;;;;;;;10.77;66.62;101330.13;5036129;28;1227;-91
2022/04/30 12:33:56;;;;;;;;;;;;;;;10.71;66.21;101330.34;5036035;28;1957;-90
2022/04/30 12:36:23;;;;;;;;;;;;;;;11.03;66.71;101320.19;5035942;28;1047;-90
2022/04/30 12:38:55;;;;;;;;;;;;;;;11.25;64.77;101322.78;5035949;28;1223;-90
2022/04/30 12:41:22;;;;;;;;;;;;;;;11.24;65.23;101323.88;5036214;28;1365;-91
2022/04/30 12:43:47;;;;;;;;;;;;;;;11.36;64.84;101324.50;5035888;28;1452;-91
2022/04/30 12:46:20;;;;;;;;;;;;;;;11.31;64.45;101321.75;5035890;28;1213;-90
2022/04/30 12:48:54;;;;;;;;;;;;;;;11.40;64.30;101322.06;5057179;28;1287;-90
2022/04/30 12:51:19;;;;;;;;;;;;;;;11.46;63.26;101332.78;5039858;28;1233;-91
2022/04/30 12:53:45;;;;;;;;;;;;;;;11.16;63.72;101318.88;5034752;28;1947;-91
2022/04/30 12:56:10;;;;;;;;;;;;;;;11.41;63.79;101323.69;5039604;28;1368;-89
2022/04/30 12:58:35;;;;;;;;;;;;;;;11.50;63.43;101319.34;5057498;28;1071;-88
2022/04/30 13:01:00;;;;;;;;;;;;;;;11.33;62.83;101311.31;5040758;28;1221;-89
2022/04/30 13:03:27;;;;;;;;;;;;;;;11.42;62.56;101315.19;5040242;28;1312;-90
2022/04/30 13:05:52;;;;;;;;;;;;;;;11.55;61.77;101306.50;5041034;28;1243;-88
2022/04/30 13:08:17;;;;;;;;;;;;;;;11.22;63.16;101307.72;5041120;28;1483;-90
2022/04/30 13:13:34;;;;;;;;;;;;;;;12.10;62.43;101303.16;5058744;28;618;-90
2022/04/30 13:16:09;;;;;;;;;;;;;;;12.10;61.84;101299.56;5040787;28;1389;-90
2022/04/30 13:18:34;;;;;;;;;;;;;;;11.89;61.60;101298.72;5041376;28;1250;-90
2022/04/30 13:21:00;;;;;;;;;;;;;;;11.81;60.88;101290.19;5040741;28;1213;-90
2022/04/30 13:23:25;;;;;;;;;;;;;;;11.67;61.84;101292.56;5040677;28;1444;-90
2022/04/30 13:25:50;;;;;;;;;;;;;;;11.47;63.60;101290.56;5041304;28;1085;-90
2022/04/30 13:28:15;;;;;;;;;;;;;;;11.27;61.66;101285.81;5041102;28;1032;-90
2022/04/30 13:30:40;;;;;;;;;;;;;;;11.55;62.87;101287.31;5040288;28;1298;-90
2022/04/30 13:33:06;;;;;;;;;;;;;;;11.81;62.41;101284.69;5058207;28;1003;-90
2022/04/30 13:35:31;;;;;;;;;;;;;;;11.78;62.06;101279.75;5040467;28;1906;-89
2022/04/30 13:37:56;;;;;;;;;;;;;;;11.70;62.96;101284.63;5039976;28;1348;-89
2022/04/30 13:40:21;;;;;;;;;;;;;;;11.66;61.46;101278.00;5039801;28;1243;-90